sensor_id;sensor_type;location;lat;lon;timestamp;pressure;altitude;pressure_sealevel;temperature;humidity
15405;BME280;7801;48.124;11.590;2022-11-15T00:00:56;95393.31;;;7.23;86.26
15405;BME280;7801;48.124;11.590;2022-11-15T00:03:24;95390.44;;;7.19;86.59
15405;BME280;7801;48.124;11.590;2022-11-15T00:05:53;95387.44;;;7.41;85.35
15405;BME280;7801;48.124;11.590;2022-11-15T00:08:19;95384.34;;;7.24;85.96
15405;BME280;7801;48.124;11.590;2022-11-15T00:11:00;95380.69;;;7.20;86.17
15405;BME280;7801;48.124;11.590;2022-11-15T00:13:27;95374.06;;;7.22;86.41
15405;BME280;7801;48.124;11.590;2022-11-15T00:15:57;95374.59;;;7.19;86.22
15405;BME280;7801;48.124;11.590;2022-11-15T00:18:24;95377.03;;;7.06;86.53
15405;BME280;7801;48.124;11.590;2022-11-15T00:20:51;95373.31;;;7.07;86.43
15405;BME280;7801;48.124;11.590;2022-11-15T00:23:18;95374.37;;;7.11;86.35
15405;BME280;7801;48.124;11.590;2022-11-15T00:25:46;95373.63;;;7.05;86.07
15405;BME280;7801;48.124;11.590;2022-11-15T00:28:14;95374.69;;;6.99;86.41
15405;BME280;7801;48.124;11.590;2022-11-15T00:30:41;95373.06;;;7.08;86.38
15405;BME280;7801;48.124;11.590;2022-11-15T00:33:08;95365.41;;;7.07;86.13
15405;BME280;7801;48.124;11.590;2022-11-15T00:35:35;95367.00;;;7.08;85.74
15405;BME280;7801;48.124;11.590;2022-11-15T00:38:01;95371.97;;;7.24;84.66
15405;BME280;7801;48.124;11.590;2022-11-15T00:40:29;95375.13;;;7.21;85.17
15405;BME280;7801;48.124;11.590;2022-11-15T00:42:56;95374.44;;;6.96;85.41
15405;BME280;7801;48.124;11.590;2022-11-15T00:45:24;95367.63;;;6.84;86.15
15405;BME280;7801;48.124;11.590;2022-11-15T00:47:51;95361.84;;;6.72;86.82
15405;BME280;7801;48.124;11.590;2022-11-15T00:50:18;95358.87;;;6.94;85.71
15405;BME280;7801;48.124;11.590;2022-11-15T00:52:44;95362.03;;;6.91;85.72
15405;BME280;7801;48.124;11.590;2022-11-15T00:55:18;95352.78;;;7.04;85.43
15405;BME280;7801;48.124;11.590;2022-11-15T00:57:45;95353.06;;;7.02;85.50
15405;BME280;7801;48.124;11.590;2022-11-15T01:00:32;95352.00;;;6.93;85.37
15405;BME280;7801;48.124;11.590;2022-11-15T01:03:03;95349.09;;;7.00;85.32
15405;BME280;7801;48.124;11.590;2022-11-15T01:05:28;95349.19;;;6.74;85.89
15405;BME280;7801;48.124;11.590;2022-11-15T01:07:56;95333.34;;;6.84;85.86
15405;BME280;7801;48.124;11.590;2022-11-15T01:10:23;95332.50;;;6.89;85.69
15405;BME280;7801;48.124;11.590;2022-11-15T01:12:52;95324.66;;;6.74;85.85
15405;BME280;7801;48.124;11.590;2022-11-15T01:15:18;95329.69;;;6.65;86.29
15405;BME280;7801;48.124;11.590;2022-11-15T01:17:46;95328.63;;;6.66;86.00
15405;BME280;7801;48.124;11.590;2022-11-15T01:20:12;95329.97;;;6.64;86.17
15405;BME280;7801;48.124;11.590;2022-11-15T01:22:42;95328.16;;;6.49;86.93
15405;BME280;7801;48.124;11.590;2022-11-15T01:25:07;95326.06;;;6.31;87.23
15405;BME280;7801;48.124;11.590;2022-11-15T01:27:35;95316.84;;;6.38;87.35
15405;BME280;7801;48.124;11.590;2022-11-15T01:30:03;95318.16;;;6.36;87.80
15405;BME280;7801;48.124;11.590;2022-11-15T01:32:34;95312.94;;;6.20;87.69
15405;BME280;7801;48.124;11.590;2022-11-15T01:34:59;95307.09;;;6.34;87.26
15405;BME280;7801;48.124;11.590;2022-11-15T01:37:26;95302.38;;;6.26;86.50
15405;BME280;7801;48.124;11.590;2022-11-15T01:39:57;95299.75;;;6.26;87.04
15405;BME280;7801;48.124;11.590;2022-11-15T01:42:23;95300.25;;;6.28;87.03
15405;BME280;7801;48.124;11.590;2022-11-15T01:44:53;95300.25;;;6.33;86.61
15405;BME280;7801;48.124;11.590;2022-11-15T01:47:37;95294.69;;;6.49;85.58
15405;BME280;7801;48.124;11.590;2022-11-15T01:50:10;95295.41;;;6.65;85.00
15405;BME280;7801;48.124;11.590;2022-11-15T01:52:42;95283.09;;;6.50;85.14
15405;BME280;7801;48.124;11.590;2022-11-15T01:55:20;95283.63;;;6.47;85.18
15405;BME280;7801;48.124;11.590;2022-11-15T01:57:50;95281.06;;;6.17;85.90
15405;BME280;7801;48.124;11.590;2022-11-15T02:00:20;95279.44;;;6.31;85.41
15405;BME280;7801;48.124;11.590;2022-11-15T02:02:48;95272.66;;;6.10;86.50
15405;BME280;7801;48.124;11.590;2022-11-15T02:05:15;95268.91;;;6.31;86.11
15405;BME280;7801;48.124;11.590;2022-11-15T02:07:40;95279.22;;;6.17;86.04
15405;BME280;7801;48.124;11.590;2022-11-15T02:10:27;95273.38;;;6.31;85.36
15405;BME280;7801;48.124;11.590;2022-11-15T02:12:56;95267.34;;;6.35;85.02
15405;BME280;7801;48.124;11.590;2022-11-15T02:15:32;95265.22;;;6.32;85.22
15405;BME280;7801;48.124;11.590;2022-11-15T02:18:26;95262.84;;;6.36;84.75
15405;BME280;7801;48.124;11.590;2022-11-15T02:21:31;95252.56;;;6.34;84.67
15405;BME280;7801;48.124;11.590;2022-11-15T02:24:25;95255.72;;;6.36;84.81
15405;BME280;7801;48.124;11.590;2022-11-15T02:27:36;95265.75;;;6.24;84.67
15405;BME280;7801;48.124;11.590;2022-11-15T02:30:37;95261.06;;;6.21;85.11
15405;BME280;7801;48.124;11.590;2022-11-15T02:33:30;95257.06;;;6.29;84.80
15405;BME280;7801;48.124;11.590;2022-11-15T02:36:10;95256.53;;;6.32;84.77
15405;BME280;7801;48.124;11.590;2022-11-15T02:39:06;95264.91;;;6.49;83.93
15405;BME280;7801;48.124;11.590;2022-11-15T02:42:17;95260.69;;;6.53;83.58
15405;BME280;7801;48.124;11.590;2022-11-15T02:45:32;95259.69;;;6.44;83.13
15405;BME280;7801;48.124;11.590;2022-11-15T02:48:01;95257.53;;;6.51;83.34
15405;BME280;7801;48.124;11.590;2022-11-15T02:50:31;95248.62;;;6.27;84.27
15405;BME280;7801;48.124;11.590;2022-11-15T02:53:03;95249.44;;;6.27;84.32
15405;BME280;7801;48.124;11.590;2022-11-15T02:55:35;95251.31;;;6.22;84.65
15405;BME280;7801;48.124;11.590;2022-11-15T03:04:42;95245.78;;;6.18;83.90
15405;BME280;7801;48.124;11.590;2022-11-15T03:07:45;95240.53;;;6.08;85.52
15405;BME280;7801;48.124;11.590;2022-11-15T03:10:22;95235.72;;;6.25;84.47
15405;BME280;7801;48.124;11.590;2022-11-15T03:12:58;95236.78;;;6.34;84.42
15405;BME280;7801;48.124;11.590;2022-11-15T03:15:36;95233.41;;;6.08;84.48
15405;BME280;7801;48.124;11.590;2022-11-15T03:18:28;95219.72;;;6.06;84.76
15405;BME280;7801;48.124;11.590;2022-11-15T03:20:57;95218.91;;;6.21;84.30
15405;BME280;7801;48.124;11.590;2022-11-15T03:23:26;95225.97;;;6.31;83.38
15405;BME280;7801;48.124;11.590;2022-11-15T03:25:55;95220.16;;;6.39;83.18
15405;BME280;7801;48.124;11.590;2022-11-15T03:28:49;95228.28;;;6.47;83.24
15405;BME280;7801;48.124;11.590;2022-11-15T03:31:16;95217.78;;;6.42;83.38
15405;BME280;7801;48.124;11.590;2022-11-15T03:34:06;95214.28;;;6.57;82.74
15405;BME280;7801;48.124;11.590;2022-11-15T03:36:35;95219.56;;;6.57;82.10
15405;BME280;7801;48.124;11.590;2022-11-15T03:39:08;95209.56;;;6.54;82.37
15405;BME280;7801;48.124;11.590;2022-11-15T03:41:51;95205.88;;;6.50;82.27
15405;BME280;7801;48.124;11.590;2022-11-15T03:44:47;95208.56;;;6.40;82.16
15405;BME280;7801;48.124;11.590;2022-11-15T03:47:41;95202.28;;;6.26;82.77
15405;BME280;7801;48.124;11.590;2022-11-15T03:50:14;95197.63;;;5.82;84.28
15405;BME280;7801;48.124;11.590;2022-11-15T03:52:41;95198.69;;;5.91;84.31
15405;BME280;7801;48.124;11.590;2022-11-15T03:55:13;95209.47;;;6.00;83.99
15405;BME280;7801;48.124;11.590;2022-11-15T03:57:40;95204.22;;;6.00;83.39
15405;BME280;7801;48.124;11.590;2022-11-15T04:00:09;95198.16;;;5.84;83.80
15405;BME280;7801;48.124;11.590;2022-11-15T04:02:59;95193.69;;;5.95;83.72
15405;BME280;7801;48.124;11.590;2022-11-15T04:05:27;95195.28;;;5.91;83.88
15405;BME280;7801;48.124;11.590;2022-11-15T04:07:54;95192.34;;;5.87;83.78
15405;BME280;7801;48.124;11.590;2022-11-15T04:10:20;95186.31;;;5.92;83.96
15405;BME280;7801;48.124;11.590;2022-11-15T04:12:48;95182.63;;;5.98;83.71
15405;BME280;7801;48.124;11.590;2022-11-15T04:15:19;95179.41;;;6.16;83.04
15405;BME280;7801;48.124;11.590;2022-11-15T04:17:55;95179.62;;;6.25;82.26
15405;BME280;7801;48.124;11.590;2022-11-15T04:20:26;95173.81;;;6.28;82.27
15405;BME280;7801;48.124;11.590;2022-11-15T04:23:17;95175.00;;;5.91;82.86
15405;BME280;7801;48.124;11.590;2022-11-15T04:26:05;95177.13;;;5.64;83.48
15405;BME280;7801;48.124;11.590;2022-11-15T04:28:32;95176.09;;;5.44;84.40
15405;BME280;7801;48.124;11.590;2022-11-15T04:30:59;95170.56;;;5.51;84.66
15405;BME280;7801;48.124;11.590;2022-11-15T04:33:24;95164.22;;;5.93;83.12
15405;BME280;7801;48.124;11.590;2022-11-15T04:35:51;95172.12;;;5.77;82.64
15405;BME280;7801;48.124;11.590;2022-11-15T04:38:37;95169.75;;;5.71;83.22
15405;BME280;7801;48.124;11.590;2022-11-15T04:41:02;95166.56;;;5.84;82.73
15405;BME280;7801;48.124;11.590;2022-11-15T04:43:28;95159.22;;;5.91;82.60
15405;BME280;7801;48.124;11.590;2022-11-15T04:45:55;95158.88;;;6.08;81.79
15405;BME280;7801;48.124;11.590;2022-11-15T04:48:21;95164.44;;;5.86;81.89
15405;BME280;7801;48.124;11.590;2022-11-15T04:50:49;95168.72;;;5.57;83.21
15405;BME280;7801;48.124;11.590;2022-11-15T04:53:15;95167.13;;;5.71;83.06
15405;BME280;7801;48.124;11.590;2022-11-15T04:55:50;95167.09;;;5.86;82.43
15405;BME280;7801;48.124;11.590;2022-11-15T04:58:18;95154.19;;;5.84;81.91
15405;BME280;7801;48.124;11.590;2022-11-15T05:00:44;95163.94;;;5.84;82.16
15405;BME280;7801;48.124;11.590;2022-11-15T05:03:10;95162.91;;;5.90;82.09
15405;BME280;7801;48.124;11.590;2022-11-15T05:05:56;95156.34;;;5.72;82.80
15405;BME280;7801;48.124;11.590;2022-11-15T05:08:22;95162.34;;;5.83;82.68
15405;BME280;7801;48.124;11.590;2022-11-15T05:10:48;95155.53;;;5.72;83.08
15405;BME280;7801;48.124;11.590;2022-11-15T05:13:17;95146.84;;;5.76;82.61
15405;BME280;7801;48.124;11.590;2022-11-15T05:15:43;95152.66;;;5.73;82.76
15405;BME280;7801;48.124;11.590;2022-11-15T05:18:09;95150.81;;;5.69;82.76
15405;BME280;7801;48.124;11.590;2022-11-15T05:20:38;95151.59;;;5.79;82.25
15405;BME280;7801;48.124;11.590;2022-11-15T05:23:07;95149.75;;;5.75;82.67
15405;BME280;7801;48.124;11.590;2022-11-15T05:25:36;95148.44;;;5.62;83.09
15405;BME280;7801;48.124;11.590;2022-11-15T05:28:02;95141.84;;;5.75;82.62
15405;BME280;7801;48.124;11.590;2022-11-15T05:30:32;95136.59;;;5.70;82.52
15405;BME280;7801;48.124;11.590;2022-11-15T05:33:02;95122.13;;;5.72;82.31
15405;BME280;7801;48.124;11.590;2022-11-15T05:35:40;95127.12;;;5.69;82.25
15405;BME280;7801;48.124;11.590;2022-11-15T05:38:08;95122.91;;;5.78;82.05
15405;BME280;7801;48.124;11.590;2022-11-15T05:40:34;95122.66;;;5.64;82.61
15405;BME280;7801;48.124;11.590;2022-11-15T05:43:05;95119.28;;;5.59;82.59
15405;BME280;7801;48.124;11.590;2022-11-15T05:45:53;95116.59;;;5.64;82.37
15405;BME280;7801;48.124;11.590;2022-11-15T05:48:20;95114.53;;;5.56;82.77
15405;BME280;7801;48.124;11.590;2022-11-15T05:50:51;95119.50;;;5.72;82.28
15405;BME280;7801;48.124;11.590;2022-11-15T05:53:19;95119.50;;;5.62;82.35
15405;BME280;7801;48.124;11.590;2022-11-15T05:55:48;95121.91;;;5.53;82.54
15405;BME280;7801;48.124;11.590;2022-11-15T05:58:18;95120.78;;;5.80;81.80
15405;BME280;7801;48.124;11.590;2022-11-15T06:00:51;95117.13;;;5.76;81.56
15405;BME280;7801;48.124;11.590;2022-11-15T06:03:22;95116.59;;;5.69;82.08
15405;BME280;7801;48.124;11.590;2022-11-15T06:05:48;95116.06;;;5.77;82.00
15405;BME280;7801;48.124;11.590;2022-11-15T06:08:15;95102.88;;;5.82;81.87
15405;BME280;7801;48.124;11.590;2022-11-15T06:10:41;95106.81;;;5.84;81.67
15405;BME280;7801;48.124;11.590;2022-11-15T06:13:07;95094.97;;;5.82;81.65
15405;BME280;7801;48.124;11.590;2022-11-15T06:15:34;95098.13;;;5.84;81.44
15405;BME280;7801;48.124;11.590;2022-11-15T06:18:00;95092.09;;;5.78;81.23
15405;BME280;7801;48.124;11.590;2022-11-15T06:20:32;95098.66;;;5.96;81.17
15405;BME280;7801;48.124;11.590;2022-11-15T06:23:02;95094.44;;;5.85;80.92
15405;BME280;7801;48.124;11.590;2022-11-15T06:25:29;95099.97;;;5.83;80.70
15405;BME280;7801;48.124;11.590;2022-11-15T06:28:00;95103.75;;;5.52;82.00
15405;BME280;7801;48.124;11.590;2022-11-15T06:30:27;95102.44;;;5.49;82.54
15405;BME280;7801;48.124;11.590;2022-11-15T06:32:58;95100.28;;;5.77;82.00
15405;BME280;7801;48.124;11.590;2022-11-15T06:35:27;95097.09;;;5.80;81.85
15405;BME280;7801;48.124;11.590;2022-11-15T06:37:54;95102.38;;;5.75;81.78
15405;BME280;7801;48.124;11.590;2022-11-15T06:40:21;95103.13;;;5.91;81.41
15405;BME280;7801;48.124;11.590;2022-11-15T06:42:47;95106.53;;;5.86;81.94
15405;BME280;7801;48.124;11.590;2022-11-15T06:45:15;95113.38;;;6.02;80.95
15405;BME280;7801;48.124;11.590;2022-11-15T06:47:47;95112.91;;;5.80;81.68
15405;BME280;7801;48.124;11.590;2022-11-15T06:50:15;95113.38;;;5.82;81.88
15405;BME280;7801;48.124;11.590;2022-11-15T06:52:42;95104.72;;;5.97;80.80
15405;BME280;7801;48.124;11.590;2022-11-15T06:55:09;95115.00;;;5.78;81.30
15405;BME280;7801;48.124;11.590;2022-11-15T06:57:36;95107.41;;;5.66;81.93
15405;BME280;7801;48.124;11.590;2022-11-15T07:00:06;95102.09;;;5.81;81.24
15405;BME280;7801;48.124;11.590;2022-11-15T07:02:34;95110.00;;;5.76;81.51
15405;BME280;7801;48.124;11.590;2022-11-15T07:05:00;95116.06;;;5.77;81.39
15405;BME280;7801;48.124;11.590;2022-11-15T07:07:25;95118.38;;;5.83;81.40
15405;BME280;7801;48.124;11.590;2022-11-15T07:09:50;95116.59;;;5.74;81.48
15405;BME280;7801;48.124;11.590;2022-11-15T07:12:17;95117.59;;;5.83;81.53
15405;BME280;7801;48.124;11.590;2022-11-15T07:14:44;95112.91;;;5.80;81.50
15405;BME280;7801;48.124;11.590;2022-11-15T07:17:10;95107.37;;;5.76;81.71
15405;BME280;7801;48.124;11.590;2022-11-15T07:19:35;95114.19;;;5.93;81.55
15405;BME280;7801;48.124;11.590;2022-11-15T07:22:02;95119.12;;;6.09;80.32
15405;BME280;7801;48.124;11.590;2022-11-15T07:24:29;95113.56;;;6.21;79.98
15405;BME280;7801;48.124;11.590;2022-11-15T07:26:57;95110.63;;;6.28;79.67
15405;BME280;7801;48.124;11.590;2022-11-15T07:29:24;95116.22;;;6.11;80.39
15405;BME280;7801;48.124;11.590;2022-11-15T07:31:49;95116.78;;;6.03;80.89
15405;BME280;7801;48.124;11.590;2022-11-15T07:34:16;95117.56;;;6.08;81.03
15405;BME280;7801;48.124;11.590;2022-11-15T07:36:42;95116.19;;;6.21;80.67
15405;BME280;7801;48.124;11.590;2022-11-15T07:39:08;95118.59;;;6.12;81.04
15405;BME280;7801;48.124;11.590;2022-11-15T07:41:34;95119.66;;;6.11;81.92
15405;BME280;7801;48.124;11.590;2022-11-15T07:44:01;95111.44;;;6.23;81.68
15405;BME280;7801;48.124;11.590;2022-11-15T07:46:26;95109.53;;;7.12;98.83
15405;BME280;7801;48.124;11.590;2022-11-15T07:48:53;95099.47;;;8.62;100.00
15405;BME280;7801;48.124;11.590;2022-11-15T07:51:20;95092.37;;;9.27;100.00
15405;BME280;7801;48.124;11.590;2022-11-15T07:53:49;95092.75;;;9.67;100.00
15405;BME280;7801;48.124;11.590;2022-11-15T07:56:15;95076.97;;;10.03;97.76
15405;BME280;7801;48.124;11.590;2022-11-15T07:58:45;95086.25;;;10.55;92.91
15405;BME280;7801;48.124;11.590;2022-11-15T08:01:13;95089.12;;;10.04;78.44
15405;BME280;7801;48.124;11.590;2022-11-15T08:03:40;95096.72;;;9.37;72.66
15405;BME280;7801;48.124;11.590;2022-11-15T08:06:07;95099.19;;;8.82;74.13
15405;BME280;7801;48.124;11.590;2022-11-15T08:08:33;95098.00;;;8.32;75.30
15405;BME280;7801;48.124;11.590;2022-11-15T08:10:59;95089.72;;;7.96;77.11
15405;BME280;7801;48.124;11.590;2022-11-15T08:13:24;95087.56;;;7.74;77.90
15405;BME280;7801;48.124;11.590;2022-11-15T08:15:49;95081.62;;;7.64;77.73
15405;BME280;7801;48.124;11.590;2022-11-15T08:18:16;95081.34;;;7.65;76.60
15405;BME280;7801;48.124;11.590;2022-11-15T08:20:43;95072.47;;;7.80;76.00
15405;BME280;7801;48.124;11.590;2022-11-15T08:23:10;95066.97;;;7.76;75.72
15405;BME280;7801;48.124;11.590;2022-11-15T08:25:38;95064.72;;;7.88;75.45
15405;BME280;7801;48.124;11.590;2022-11-15T08:28:10;95061.91;;;8.04;74.95
15405;BME280;7801;48.124;11.590;2022-11-15T08:30:37;95051.00;;;8.10;75.28
15405;BME280;7801;48.124;11.590;2022-11-15T08:33:04;95040.63;;;8.14;75.08
15405;BME280;7801;48.124;11.590;2022-11-15T08:35:31;95032.06;;;8.22;74.94
15405;BME280;7801;48.124;11.590;2022-11-15T08:37:58;95024.63;;;8.24;76.32
15405;BME280;7801;48.124;11.590;2022-11-15T08:40:25;95022.94;;;8.33;74.76
15405;BME280;7801;48.124;11.590;2022-11-15T08:42:52;95025.59;;;8.33;75.14
15405;BME280;7801;48.124;11.590;2022-11-15T08:45:21;95023.53;;;8.49;75.39
15405;BME280;7801;48.124;11.590;2022-11-15T08:47:47;95020.31;;;8.52;76.51
15405;BME280;7801;48.124;11.590;2022-11-15T08:50:15;95027.03;;;8.44;76.13
15405;BME280;7801;48.124;11.590;2022-11-15T08:52:40;95017.47;;;8.48;76.81
15405;BME280;7801;48.124;11.590;2022-11-15T08:55:08;95019.03;;;8.49;76.85
15405;BME280;7801;48.124;11.590;2022-11-15T08:57:38;95031.06;;;8.74;76.06
15405;BME280;7801;48.124;11.590;2022-11-15T09:00:04;95033.91;;;8.78;75.47
15405;BME280;7801;48.124;11.590;2022-11-15T09:02:30;95035.12;;;8.85;74.70
15405;BME280;7801;48.124;11.590;2022-11-15T09:04:57;95036.66;;;8.73;75.32
15405;BME280;7801;48.124;11.590;2022-11-15T09:07:25;95038.63;;;8.81;75.72
15405;BME280;7801;48.124;11.590;2022-11-15T09:09:51;95037.03;;;8.99;73.09
15405;BME280;7801;48.124;11.590;2022-11-15T09:12:18;95033.81;;;9.15;72.35
15405;BME280;7801;48.124;11.590;2022-11-15T09:14:44;95029.94;;;9.26;71.99
15405;BME280;7801;48.124;11.590;2022-11-15T09:17:13;95028.97;;;9.36;72.20
15405;BME280;7801;48.124;11.590;2022-11-15T09:19:39;95026.81;;;9.38;72.00
15405;BME280;7801;48.124;11.590;2022-11-15T09:22:06;95028.09;;;9.41;70.35
15405;BME280;7801;48.124;11.590;2022-11-15T09:24:34;95023.69;;;9.50;71.44
15405;BME280;7801;48.124;11.590;2022-11-15T09:27:01;95013.50;;;9.71;68.49
15405;BME280;7801;48.124;11.590;2022-11-15T09:29:29;95005.94;;;9.64;70.49
15405;BME280;7801;48.124;11.590;2022-11-15T09:31:57;95007.13;;;9.72;70.42
15405;BME280;7801;48.124;11.590;2022-11-15T09:34:22;94999.75;;;9.82;67.05
15405;BME280;7801;48.124;11.590;2022-11-15T09:36:48;94998.72;;;10.06;66.44
15405;BME280;7801;48.124;11.590;2022-11-15T09:39:14;94992.91;;;10.31;65.26
15405;BME280;7801;48.124;11.590;2022-11-15T09:47:49;94983.06;;;16.07;71.46
15405;BME280;7801;48.124;11.590;2022-11-15T09:50:53;94969.41;;;16.48;64.50
15405;BME280;7801;48.124;11.590;2022-11-15T09:53:47;94969.16;;;16.94;57.91
15405;BME280;7801;48.124;11.590;2022-11-15T09:56:21;94960.97;;;16.34;48.92
15405;BME280;7801;48.124;11.590;2022-11-15T10:04:45;94955.56;;;12.65;56.80
15405;BME280;7801;48.124;11.590;2022-11-15T10:09:53;94956.81;;;11.59;61.98
15405;BME280;7801;48.124;11.590;2022-11-15T10:12:23;94951.75;;;11.40;63.96
15405;BME280;7801;48.124;11.590;2022-11-15T10:15:02;94947.41;;;11.13;65.66
15405;BME280;7801;48.124;11.590;2022-11-15T10:20:28;94937.81;;;10.95;66.34
15405;BME280;7801;48.124;11.590;2022-11-15T10:23:10;94928.47;;;10.97;66.72
15405;BME280;7801;48.124;11.590;2022-11-15T10:25:38;94930.63;;;10.95;67.44
15405;BME280;7801;48.124;11.590;2022-11-15T10:28:29;94924.31;;;11.14;65.93
15405;BME280;7801;48.124;11.590;2022-11-15T10:31:01;94918.81;;;11.10;66.98
15405;BME280;7801;48.124;11.590;2022-11-15T10:33:37;94911.66;;;11.11;66.40
15405;BME280;7801;48.124;11.590;2022-11-15T10:39:04;94911.38;;;11.21;64.38
15405;BME280;7801;48.124;11.590;2022-11-15T10:41:38;94903.72;;;11.19;63.45
15405;BME280;7801;48.124;11.590;2022-11-15T10:44:11;94894.31;;;11.13;64.50
15405;BME280;7801;48.124;11.590;2022-11-15T10:46:44;94893.28;;;11.31;63.48
15405;BME280;7801;48.124;11.590;2022-11-15T10:49:21;94886.25;;;11.27;64.38
15405;BME280;7801;48.124;11.590;2022-11-15T10:52:15;94882.97;;;11.30;64.68
15405;BME280;7801;48.124;11.590;2022-11-15T10:54:55;94882.97;;;11.30;64.12
15405;BME280;7801;48.124;11.590;2022-11-15T10:57:33;94883.19;;;11.42;63.49
15405;BME280;7801;48.124;11.590;2022-11-15T11:02:59;94868.47;;;11.36;64.45
15405;BME280;7801;48.124;11.590;2022-11-15T11:05:39;94860.69;;;11.57;63.71
15405;BME280;7801;48.124;11.590;2022-11-15T11:10:55;94856.16;;;11.57;63.79
15405;BME280;7801;48.124;11.590;2022-11-15T11:13:26;94858.50;;;11.67;63.42
15405;BME280;7801;48.124;11.590;2022-11-15T11:19:36;94850.59;;;11.85;61.77
15405;BME280;7801;48.124;11.590;2022-11-15T11:25:37;94843.25;;;11.82;62.17
15405;BME280;7801;48.124;11.590;2022-11-15T11:28:28;94837.47;;;11.80;62.95
15405;BME280;7801;48.124;11.590;2022-11-15T11:31:43;94836.81;;;11.74;62.59
15405;BME280;7801;48.124;11.590;2022-11-15T11:52:22;94803.94;;;12.30;59.32
15405;BME280;7801;48.124;11.590;2022-11-15T12:00:33;94797.47;;;12.49;59.61
15405;BME280;7801;48.124;11.590;2022-11-15T12:06:22;94799.34;;;12.57;59.09
15405;BME280;7801;48.124;11.590;2022-11-15T12:09:20;94791.06;;;12.50;59.54
15405;BME280;7801;48.124;11.590;2022-11-15T12:14:48;94781.00;;;12.64;59.05
15405;BME280;7801;48.124;11.590;2022-11-15T12:17:12;94775.16;;;12.70;59.00
15405;BME280;7801;48.124;11.590;2022-11-15T12:19:40;94770.00;;;12.74;58.07
15405;BME280;7801;48.124;11.590;2022-11-15T12:22:42;94766.22;;;12.75;56.80
15405;BME280;7801;48.124;11.590;2022-11-15T12:31:13;94763.16;;;12.94;54.91
15405;BME280;7801;48.124;11.590;2022-11-15T12:33:49;94767.81;;;13.05;53.63
15405;BME280;7801;48.124;11.590;2022-11-15T12:36:35;94768.84;;;13.13;53.22
15405;BME280;7801;48.124;11.590;2022-11-15T12:39:12;94753.72;;;13.05;53.74
15405;BME280;7801;48.124;11.590;2022-11-15T12:41:41;94759.97;;;13.09;54.14
15405;BME280;7801;48.124;11.590;2022-11-15T12:44:12;94756.75;;;13.24;53.47
15405;BME280;7801;48.124;11.590;2022-11-15T12:52:08;94755.34;;;13.27;53.49
15405;BME280;7801;48.124;11.590;2022-11-15T12:54:55;94755.69;;;13.17;54.20
15405;BME280;7801;48.124;11.590;2022-11-15T12:57:35;94748.81;;;13.16;54.65
15405;BME280;7801;48.124;11.590;2022-11-15T13:02:36;94743.13;;;13.26;54.52
15405;BME280;7801;48.124;11.590;2022-11-15T13:07:56;94741.69;;;12.99;57.61
15405;BME280;7801;48.124;11.590;2022-11-15T13:10:33;94735.50;;;12.86;57.47
15405;BME280;7801;48.124;11.590;2022-11-15T13:13:06;94737.66;;;13.14;56.31
15405;BME280;7801;48.124;11.590;2022-11-15T13:18:35;94724.84;;;13.36;54.91
15405;BME280;7801;48.124;11.590;2022-11-15T13:21:03;94726.69;;;13.24;56.91
15405;BME280;7801;48.124;11.590;2022-11-15T13:23:55;94727.31;;;13.21;57.23
15405;BME280;7801;48.124;11.590;2022-11-15T13:26:22;94723.59;;;13.34;55.77
15405;BME280;7801;48.124;11.590;2022-11-15T13:28:49;94723.28;;;13.35;55.49
15405;BME280;7801;48.124;11.590;2022-11-15T13:31:40;94715.69;;;13.46;55.18
15405;BME280;7801;48.124;11.590;2022-11-15T13:34:29;94715.44;;;13.39;55.50
15405;BME280;7801;48.124;11.590;2022-11-15T13:36:59;94722.59;;;13.47;54.98
15405;BME280;7801;48.124;11.590;2022-11-15T13:39:35;94722.59;;;13.47;55.30
15405;BME280;7801;48.124;11.590;2022-11-15T13:42:10;94722.25;;;13.49;55.90
15405;BME280;7801;48.124;11.590;2022-11-15T13:45:04;94726.81;;;13.27;57.60
15405;BME280;7801;48.124;11.590;2022-11-15T13:47:32;94719.00;;;13.43;55.73
15405;BME280;7801;48.124;11.590;2022-11-15T13:50:00;94713.22;;;13.41;55.61
15405;BME280;7801;48.124;11.590;2022-11-15T13:52:44;94713.22;;;13.41;56.29
15405;BME280;7801;48.124;11.590;2022-11-15T13:55:21;94703.84;;;13.35;56.74
15405;BME280;7801;48.124;11.590;2022-11-15T13:57:52;94703.81;;;13.23;58.16
15405;BME280;7801;48.124;11.590;2022-11-15T14:00:43;94702.44;;;13.17;58.47
15405;BME280;7801;48.124;11.590;2022-11-15T14:03:25;94710.91;;;13.10;60.10
15405;BME280;7801;48.124;11.590;2022-11-15T14:06:18;94708.09;;;13.15;57.84
15405;BME280;7801;48.124;11.590;2022-11-15T14:12:00;94701.16;;;13.23;58.52
15405;BME280;7801;48.124;11.590;2022-11-15T14:14:28;94713.19;;;12.99;60.18
15405;BME280;7801;48.124;11.590;2022-11-15T14:16:59;94716.41;;;12.84;62.35
15405;BME280;7801;48.124;11.590;2022-11-15T14:19:34;94721.13;;;12.79;61.08
15405;BME280;7801;48.124;11.590;2022-11-15T14:22:17;94721.59;;;12.81;61.51
15405;BME280;7801;48.124;11.590;2022-11-15T14:27:32;94714.28;;;12.69;63.22
15405;BME280;7801;48.124;11.590;2022-11-15T14:30:20;94718.13;;;12.51;64.08
15405;BME280;7801;48.124;11.590;2022-11-15T14:32:50;94720.06;;;12.42;64.53
15405;BME280;7801;48.124;11.590;2022-11-15T14:35:24;94722.09;;;12.45;64.01
15405;BME280;7801;48.124;11.590;2022-11-15T14:37:50;94722.72;;;12.42;64.50
15405;BME280;7801;48.124;11.590;2022-11-15T14:40:21;94722.66;;;12.50;65.43
15405;BME280;7801;48.124;11.590;2022-11-15T14:42:48;94717.03;;;12.52;64.24
15405;BME280;7801;48.124;11.590;2022-11-15T14:45:26;94725.28;;;12.59;64.23
15405;BME280;7801;48.124;11.590;2022-11-15T14:47:53;94720.91;;;12.63;63.93
15405;BME280;7801;48.124;11.590;2022-11-15T14:50:21;94724.13;;;12.68;63.69
15405;BME280;7801;48.124;11.590;2022-11-15T14:52:49;94716.16;;;12.68;64.36
15405;BME280;7801;48.124;11.590;2022-11-15T14:55:35;94717.31;;;12.59;65.03
15405;BME280;7801;48.124;11.590;2022-11-15T14:58:06;94716.44;;;12.46;65.79
15405;BME280;7801;48.124;11.590;2022-11-15T15:00:39;94712.53;;;12.44;64.89
15405;BME280;7801;48.124;11.590;2022-11-15T15:03:06;94710.34;;;12.46;65.86
15405;BME280;7801;48.124;11.590;2022-11-15T15:05:41;94707.84;;;12.41;65.43
15405;BME280;7801;48.124;11.590;2022-11-15T15:08:09;94711.44;;;12.45;65.47
15405;BME280;7801;48.124;11.590;2022-11-15T15:10:48;94703.66;;;12.31;66.35